Time;durP1;ratioP1;P1;durP2;ratioP2;P2;SDS_P1;SDS_P2;PMS_P1;PMS_P2;Temp;Humidity;BMP_temperature;BMP_pressure;BME280_temperature;BME280_humidity;BME280_pressure;Samples;Min_cycle;Max_cycle;Signal;HPM_P1;HPM_P2
2020/12/08 00:00:49;;;;;;;;;;;;;;;2.38;100.00;98434.06;4844859;29;19928;-80
2020/12/08 00:03:15;;;;;;;;;;;;;;;2.46;100.00;98442.00;4843595;29;20011;-80
2020/12/08 00:05:42;;;;;;;;;;;;;;;2.57;100.00;98436.53;4843490;29;20076;-80
2020/12/08 00:08:08;;;;;;;;;;;;;;;2.60;100.00;98444.03;4843705;29;20024;-80
2020/12/08 00:10:35;;;;;;;;;;;;;;;2.64;100.00;98444.84;4843626;29;19929;-80
2020/12/08 00:13:01;;;;;;;;;;;;;;;2.67;100.00;98444.88;4828388;29;19940;-80
2020/12/08 00:15:28;;;;;;;;;;;;;;;2.79;100.00;98449.25;4843768;29;19936;-79
2020/12/08 00:17:54;;;;;;;;;;;;;;;2.81;100.00;98453.22;4843647;29;19929;-80
2020/12/08 00:20:21;;;;;;;;;;;;;;;2.87;100.00;98454.44;4843700;29;19957;-80
2020/12/08 00:22:48;;;;;;;;;;;;;;;2.86;100.00;98452.81;4844809;29;19936;-80
2020/12/08 00:25:15;;;;;;;;;;;;;;;2.89;100.00;98456.81;4844695;29;19932;-80
2020/12/08 00:27:42;;;;;;;;;;;;;;;2.91;100.00;98451.66;4843340;29;20027;-80
2020/12/08 00:30:10;;;;;;;;;;;;;;;2.90;100.00;98448.13;4843224;29;19928;-80
2020/12/08 00:32:37;;;;;;;;;;;;;;;2.84;100.00;98435.09;4828283;29;19936;-80
2020/12/08 00:35:04;;;;;;;;;;;;;;;2.76;100.00;98427.94;4842970;29;19977;-80
2020/12/08 00:37:31;;;;;;;;;;;;;;;2.72;100.00;98427.16;4828127;29;19928;-80
2020/12/08 00:39:57;;;;;;;;;;;;;;;2.72;100.00;98429.91;4842918;29;19988;-80
2020/12/08 00:42:24;;;;;;;;;;;;;;;2.86;100.00;98449.28;4843112;29;19939;-80
2020/12/08 00:44:51;;;;;;;;;;;;;;;2.91;100.00;98443.38;4843134;29;19932;-80
2020/12/08 00:47:18;;;;;;;;;;;;;;;2.85;100.00;98434.69;4843141;29;19929;-80
2020/12/08 00:49:44;;;;;;;;;;;;;;;2.84;100.00;98435.88;4812817;29;19932;-80
2020/12/08 00:52:11;;;;;;;;;;;;;;;2.80;100.00;98428.78;4842959;29;19936;-80
2020/12/08 00:54:40;;;;;;;;;;;;;;;2.92;100.00;98431.19;4843355;29;19932;-80
2020/12/08 00:57:10;;;;;;;;;;;;;;;2.95;100.00;98447.78;4843083;29;20347;-79
2020/12/08 00:59:40;;;;;;;;;;;;;;;2.97;100.00;98441.88;4843140;29;19933;-80
2020/12/08 01:02:07;;;;;;;;;;;;;;;2.93;100.00;98432.75;4842664;29;19929;-80
2020/12/08 01:04:34;;;;;;;;;;;;;;;2.88;100.00;98435.88;4843995;29;20311;-79
2020/12/08 01:07:01;;;;;;;;;;;;;;;2.93;100.00;98433.56;4842607;29;20397;-80
2020/12/08 01:09:28;;;;;;;;;;;;;;;2.96;100.00;98437.50;4842750;29;20335;-80
2020/12/08 01:11:55;;;;;;;;;;;;;;;2.94;100.00;98434.38;4842839;29;19971;-80
2020/12/08 01:14:27;;;;;;;;;;;;;;;2.92;100.00;98437.47;4827668;29;19929;-80
2020/12/08 01:16:58;;;;;;;;;;;;;;;3.02;100.00;98441.47;4842440;29;20011;-80
2020/12/08 01:19:25;;;;;;;;;;;;;;;3.04;100.00;98428.88;4827782;29;19928;-80
2020/12/08 01:21:53;;;;;;;;;;;;;;;2.97;100.00;98430.81;4842845;29;19951;-80
2020/12/08 01:24:21;;;;;;;;;;;;;;;2.90;100.00;98434.34;4827644;29;20016;-79
2020/12/08 01:26:48;;;;;;;;;;;;;;;2.89;100.00;98429.22;4842807;29;20270;-80
2020/12/08 01:29:15;;;;;;;;;;;;;;;2.75;100.00;98418.09;4827229;29;19928;-80
2020/12/08 01:31:43;;;;;;;;;;;;;;;2.78;100.00;98415.38;4842468;29;19954;-80
2020/12/08 01:34:15;;;;;;;;;;;;;;;2.84;100.00;98421.28;4842562;29;19935;-80
2020/12/08 01:36:42;;;;;;;;;;;;;;;2.86;100.00;98425.25;4842359;29;20366;-80
2020/12/08 01:39:09;;;;;;;;;;;;;;;2.84;100.00;98424.84;4842770;29;20355;-80
2020/12/08 01:41:37;;;;;;;;;;;;;;;2.90;100.00;98433.53;4842456;29;19928;-80
2020/12/08 01:44:04;;;;;;;;;;;;;;;2.94;100.00;98434.38;4842294;29;19939;-80
2020/12/08 01:46:31;;;;;;;;;;;;;;;2.93;100.00;98438.28;4827456;29;20273;-80
2020/12/08 01:48:57;;;;;;;;;;;;;;;3.03;100.00;98437.53;4842358;29;19928;-80
2020/12/08 01:51:25;;;;;;;;;;;;;;;3.07;100.00;98439.16;4843621;29;19928;-80
2020/12/08 01:53:52;;;;;;;;;;;;;;;3.08;100.00;98449.00;4842316;29;19928;-80
2020/12/08 01:56:27;;;;;;;;;;;;;;;2.95;100.00;98433.19;4827209;29;20285;-80
2020/12/08 01:59:02;;;;;;;;;;;;;;;2.94;100.00;98435.13;4827850;29;20331;-80
2020/12/08 02:01:30;;;;;;;;;;;;;;;2.95;100.00;98441.44;4842350;29;19929;-80
2020/12/08 02:04:00;;;;;;;;;;;;;;;2.93;100.00;98432.75;4842350;29;19937;-79
2020/12/08 02:06:27;;;;;;;;;;;;;;;2.94;100.00;98428.84;4842276;29;20318;-79
2020/12/08 02:08:56;;;;;;;;;;;;;;;2.89;100.00;98423.69;4827142;29;19928;-80
2020/12/08 02:11:29;;;;;;;;;;;;;;;2.86;100.00;98441.03;4842387;29;19928;-80
2020/12/08 02:13:56;;;;;;;;;;;;;;;2.96;100.00;98437.50;4844502;29;20377;-80
2020/12/08 02:16:24;;;;;;;;;;;;;;;3.03;100.00;98443.06;4845806;29;20340;-80
2020/12/08 02:18:53;;;;;;;;;;;;;;;3.14;100.00;98450.19;4846065;29;20373;-79
2020/12/08 02:21:28;;;;;;;;;;;;;;;3.10;100.00;98454.13;4845885;29;19928;-80
2020/12/08 02:23:55;;;;;;;;;;;;;;;3.09;100.00;98452.56;4830438;29;20383;-80
2020/12/08 02:26:27;;;;;;;;;;;;;;;3.08;100.00;98450.94;4830463;29;19928;-80
2020/12/08 02:28:55;;;;;;;;;;;;;;;3.03;100.00;98448.59;4845664;29;21856;-80
2020/12/08 02:31:23;;;;;;;;;;;;;;;2.99;100.00;98445.81;4845608;29;20336;-80
2020/12/08 02:33:49;;;;;;;;;;;;;;;2.98;100.00;98454.47;4845527;29;20008;-80
2020/12/08 02:36:17;;;;;;;;;;;;;;;2.96;100.00;98446.59;4828631;29;19932;-80
2020/12/08 02:38:44;;;;;;;;;;;;;;;3.09;100.00;98453.31;4830195;29;19939;-79
2020/12/08 02:41:12;;;;;;;;;;;;;;;3.11;100.00;98455.69;4845109;29;20439;-80
2020/12/08 02:43:39;;;;;;;;;;;;;;;3.11;100.00;98452.94;4845311;29;19929;-80
2020/12/08 02:46:05;;;;;;;;;;;;;;;3.26;100.00;98460.09;4845259;29;20024;-80
2020/12/08 02:48:32;;;;;;;;;;;;;;;3.36;100.00;98467.63;4829999;29;20368;-80
2020/12/08 02:51:06;;;;;;;;;;;;;;;3.30;100.00;98466.44;4829988;29;20027;-79
2020/12/08 02:53:33;;;;;;;;;;;;;;;3.18;100.00;98462.03;4829998;29;20388;-79
2020/12/08 02:56:02;;;;;;;;;;;;;;;3.11;100.00;98453.75;4845006;29;19936;-79
2020/12/08 02:58:29;;;;;;;;;;;;;;;3.03;100.00;98462.38;4844937;29;19935;-79
2020/12/08 03:00:56;;;;;;;;;;;;;;;2.98;100.00;98462.75;4845060;29;20373;-80
2020/12/08 03:03:23;;;;;;;;;;;;;;;2.93;100.00;98460.34;4829873;29;19932;-80
2020/12/08 03:05:50;;;;;;;;;;;;;;;2.93;100.00;98455.63;4814650;29;19928;-80
2020/12/08 03:08:17;;;;;;;;;;;;;;;2.95;100.00;98456.06;4845031;29;19929;-80
2020/12/08 03:10:43;;;;;;;;;;;;;;;2.95;100.00;98458.00;4829858;29;19932;-79
2020/12/08 03:13:11;;;;;;;;;;;;;;;2.93;100.00;98455.63;4828981;29;19928;-80
2020/12/08 03:15:42;;;;;;;;;;;;;;;2.91;100.00;98446.16;4844787;29;19928;-79
2020/12/08 03:18:09;;;;;;;;;;;;;;;2.92;100.00;98442.22;4844743;29;19936;-80
2020/12/08 03:20:36;;;;;;;;;;;;;;;2.90;100.00;98447.34;4844640;29;19928;-79
2020/12/08 03:23:03;;;;;;;;;;;;;;;2.87;100.00;98442.59;4844654;29;19936;-79
2020/12/08 03:25:30;;;;;;;;;;;;;;;2.94;100.00;98442.63;4827978;29;19929;-80
2020/12/08 03:27:57;;;;;;;;;;;;;;;2.88;100.00;98441.41;4814057;29;19928;-80
2020/12/08 03:30:27;;;;;;;;;;;;;;;2.90;100.00;98447.34;4844346;29;19958;-79
2020/12/08 03:32:54;;;;;;;;;;;;;;;2.92;100.00;98453.25;4829176;29;19932;-80
2020/12/08 03:35:24;;;;;;;;;;;;;;;2.88;100.00;98452.44;4844104;29;19971;-80
2020/12/08 03:37:53;;;;;;;;;;;;;;;2.84;100.00;98452.44;4844273;29;20011;-80
2020/12/08 03:40:21;;;;;;;;;;;;;;;2.94;100.00;98451.69;4843934;29;20393;-80
2020/12/08 03:42:48;;;;;;;;;;;;;;;2.83;100.00;98444.56;4828719;29;19929;-80
2020/12/08 03:45:16;;;;;;;;;;;;;;;2.88;100.00;98446.91;4828942;29;20027;-80
2020/12/08 03:47:53;;;;;;;;;;;;;;;2.92;100.00;98450.50;4829003;29;19984;-80
2020/12/08 03:50:24;;;;;;;;;;;;;;;2.89;100.00;98443.00;4828884;29;19933;-80
2020/12/08 03:52:55;;;;;;;;;;;;;;;2.81;100.00;98435.88;4828671;29;19928;-79
2020/12/08 03:55:22;;;;;;;;;;;;;;;2.82;100.00;98441.00;4828652;29;19928;-80
2020/12/08 03:57:49;;;;;;;;;;;;;;;2.86;100.00;98438.25;4843713;29;19935;-80
2020/12/08 04:00:20;;;;;;;;;;;;;;;2.97;100.00;98450.16;4843982;29;20029;-80
2020/12/08 04:02:50;;;;;;;;;;;;;;;3.00;100.00;98454.88;4843960;29;19980;-80
2020/12/08 04:05:20;;;;;;;;;;;;;;;2.98;100.00;98448.94;4843821;29;19936;-80
2020/12/08 04:07:47;;;;;;;;;;;;;;;2.93;100.00;98446.56;4843596;29;19932;-80
2020/12/08 04:10:15;;;;;;;;;;;;;;;3.06;100.00;98456.09;4843704;29;19928;-80
2020/12/08 04:12:44;;;;;;;;;;;;;;;3.14;100.00;98468.72;4843666;29;20089;-80
2020/12/08 04:15:11;;;;;;;;;;;;;;;3.12;100.00;98463.59;4828410;29;19962;-80
2020/12/08 04:17:38;;;;;;;;;;;;;;;3.12;100.00;98460.06;4843575;29;19928;-80
2020/12/08 04:20:05;;;;;;;;;;;;;;;3.12;100.00;98465.56;4843377;29;19935;-79
2020/12/08 04:22:33;;;;;;;;;;;;;;;3.12;100.00;98465.56;4828077;29;20322;-79
2020/12/08 04:25:00;;;;;;;;;;;;;;;3.14;100.00;98460.44;4843333;29;20272;-80
2020/12/08 04:27:27;;;;;;;;;;;;;;;3.16;100.00;98472.69;4843208;29;19929;-80
2020/12/08 04:30:00;;;;;;;;;;;;;;;3.25;100.00;98469.56;4843278;29;19935;-80
2020/12/08 04:32:34;;;;;;;;;;;;;;;3.20;100.00;98475.44;4828258;29;20281;-80
2020/12/08 04:35:01;;;;;;;;;;;;;;;3.13;100.00;98459.66;4843123;29;20023;-80
2020/12/08 04:37:27;;;;;;;;;;;;;;;3.00;100.00;98463.16;4842825;29;19928;-79
2020/12/08 04:39:54;;;;;;;;;;;;;;;3.02;100.00;98463.53;4842831;29;19932;-79
2020/12/08 04:42:20;;;;;;;;;;;;;;;3.22;100.00;98473.09;4827834;29;19980;-80
2020/12/08 04:44:47;;;;;;;;;;;;;;;3.17;100.00;98481.75;4843003;29;20014;-80
2020/12/08 04:47:24;;;;;;;;;;;;;;;3.26;100.00;98484.94;4827944;29;20515;-80
2020/12/08 04:49:54;;;;;;;;;;;;;;;3.21;100.00;98477.81;4844130;29;20035;-79
2020/12/08 04:52:21;;;;;;;;;;;;;;;3.26;100.00;98476.66;4843867;29;19962;-79
2020/12/08 04:54:47;;;;;;;;;;;;;;;3.20;100.00;98479.00;4842533;29;19928;-80
2020/12/08 04:57:14;;;;;;;;;;;;;;;3.29;100.00;98484.97;4842075;29;19935;-80
2020/12/08 04:59:40;;;;;;;;;;;;;;;3.34;100.00;98492.06;4827598;29;19933;-80
2020/12/08 05:02:07;;;;;;;;;;;;;;;3.43;100.00;98489.72;4843740;29;19928;-79
2020/12/08 05:04:33;;;;;;;;;;;;;;;3.31;100.00;98499.19;4842452;29;19936;-80
2020/12/08 05:07:17;;;;;;;;;;;;;;;3.25;100.00;98494.41;4842366;29;19933;-80
2020/12/08 05:09:44;;;;;;;;;;;;;;;3.29;100.00;98506.25;4842537;29;20027;-80
2020/12/08 05:12:11;;;;;;;;;;;;;;;3.29;100.00;98500.72;4843680;29;20034;-79
2020/12/08 05:14:41;;;;;;;;;;;;;;;3.38;100.00;98506.66;4827345;29;19928;-79
2020/12/08 05:17:09;;;;;;;;;;;;;;;3.37;100.00;98508.66;4843305;29;20454;-80
2020/12/08 05:19:35;;;;;;;;;;;;;;;3.27;100.00;98503.88;4842758;29;20001;-80
2020/12/08 05:22:02;;;;;;;;;;;;;;;3.20;100.00;98509.38;4842338;29;19928;-79
2020/12/08 05:24:32;;;;;;;;;;;;;;;3.40;100.00;98518.13;4842229;29;20027;-79
2020/12/08 05:26:59;;;;;;;;;;;;;;;3.29;100.00;98514.53;4842427;29;19928;-80
2020/12/08 05:29:27;;;;;;;;;;;;;;;3.25;100.00;98516.50;4842027;29;19935;-79
2020/12/08 05:31:55;;;;;;;;;;;;;;;3.18;100.00;98503.44;4842090;29;19932;-79
2020/12/08 05:34:22;;;;;;;;;;;;;;;3.23;100.00;98510.56;4842247;29;19935;-80
2020/12/08 05:36:50;;;;;;;;;;;;;;;3.21;100.00;98505.44;4827133;29;19928;-79
2020/12/08 05:39:20;;;;;;;;;;;;;;;3.36;100.00;98511.81;4826891;29;20262;-80
2020/12/08 05:41:48;;;;;;;;;;;;;;;3.38;100.00;98513.00;4826857;29;20015;-80
2020/12/08 05:44:25;;;;;;;;;;;;;;;3.46;100.00;98511.84;4841995;29;19932;-79
2020/12/08 05:46:53;;;;;;;;;;;;;;;3.56;100.00;98515.81;4843045;29;19972;-80
2020/12/08 05:49:20;;;;;;;;;;;;;;;3.52;100.00;98506.72;4841856;29;19928;-79
2020/12/08 05:51:48;;;;;;;;;;;;;;;3.65;100.00;98507.94;4843137;29;19973;-79
2020/12/08 05:54:20;;;;;;;;;;;;;;;3.66;100.00;98515.06;4842942;29;20368;-80
2020/12/08 05:56:47;;;;;;;;;;;;;;;3.65;100.00;98513.47;4842147;29;20024;-79
2020/12/08 05:59:24;;;;;;;;;;;;;;;3.64;100.00;98511.88;4842048;29;19932;-79
2020/12/08 06:01:51;;;;;;;;;;;;;;;3.59;100.00;98513.06;4826929;29;20023;-79
2020/12/08 06:04:18;;;;;;;;;;;;;;;3.52;100.00;98507.53;4843179;29;19935;-78
2020/12/08 06:06:48;;;;;;;;;;;;;;;3.50;100.00;98506.31;4842864;29;20408;-79
2020/12/08 06:09:25;;;;;;;;;;;;;;;3.50;100.00;98506.31;4842046;29;19988;-79
2020/12/08 06:11:53;;;;;;;;;;;;;;;3.49;100.00;98510.25;4842187;29;19928;-79
2020/12/08 06:14:39;;;;;;;;;;;;;;;3.49;100.00;98513.03;4841960;29;20019;-79
2020/12/08 06:17:07;;;;;;;;;;;;;;;3.51;100.00;98502.38;4843242;29;19970;-79
2020/12/08 06:19:34;;;;;;;;;;;;;;;3.52;100.00;98510.28;4826590;29;19935;-79
2020/12/08 06:22:10;;;;;;;;;;;;;;;3.53;100.00;98513.81;4842842;29;20432;-79
2020/12/08 06:24:47;;;;;;;;;;;;;;;3.52;100.00;98520.53;4842066;29;19932;-80
2020/12/08 06:27:17;;;;;;;;;;;;;;;3.54;100.00;98518.19;4841989;29;19928;-80
2020/12/08 06:29:54;;;;;;;;;;;;;;;3.56;100.00;98521.31;4841698;29;19928;-79
2020/12/08 06:32:27;;;;;;;;;;;;;;;3.62;100.00;98519.75;4843148;29;20396;-80
2020/12/08 06:35:07;;;;;;;;;;;;;;;3.54;100.00;98527.25;4841883;29;19928;-79
2020/12/08 06:37:35;;;;;;;;;;;;;;;3.60;100.00;98533.19;4826683;29;19935;-80
2020/12/08 06:40:06;;;;;;;;;;;;;;;3.65;100.00;98532.78;4843090;29;19935;-79
2020/12/08 06:42:33;;;;;;;;;;;;;;;3.55;100.00;98537.13;4841354;29;19985;-79
2020/12/08 06:45:08;;;;;;;;;;;;;;;3.59;100.00;98535.16;4842888;29;20330;-79
2020/12/08 06:47:35;;;;;;;;;;;;;;;3.64;100.00;98545.03;4843160;29;19972;-79
2020/12/08 06:50:02;;;;;;;;;;;;;;;3.65;100.00;98552.13;4841525;29;19929;-79
2020/12/08 06:52:29;;;;;;;;;;;;;;;3.65;100.00;98557.66;4841358;29;19928;-79
2020/12/08 06:54:59;;;;;;;;;;;;;;;3.66;100.00;98548.22;4842873;29;19936;-79
2020/12/08 06:57:25;;;;;;;;;;;;;;;3.68;100.00;98554.91;4841634;29;20605;-80
2020/12/08 07:00:05;;;;;;;;;;;;;;;3.72;100.00;98557.69;4828843;29;19929;-79
2020/12/08 07:02:32;;;;;;;;;;;;;;;3.73;100.00;98562.03;4829748;29;19928;-80
2020/12/08 07:05:00;;;;;;;;;;;;;;;3.65;100.00;98552.13;4844511;29;20000;-79
2020/12/08 07:07:27;;;;;;;;;;;;;;;3.63;100.00;98557.28;4844781;29;19929;-79
2020/12/08 07:09:54;;;;;;;;;;;;;;;3.64;100.00;98559.66;4846000;29;19932;-79
2020/12/08 07:12:21;;;;;;;;;;;;;;;3.57;100.00;98554.09;4844672;29;20385;-79
2020/12/08 07:14:56;;;;;;;;;;;;;;;3.60;100.00;98542.25;4829466;29;19936;-79
2020/12/08 07:17:29;;;;;;;;;;;;;;;3.68;100.00;98559.69;4845805;29;19935;-79
2020/12/08 07:19:56;;;;;;;;;;;;;;;3.67;100.00;98566.34;4814140;29;20379;-80
2020/12/08 07:22:23;;;;;;;;;;;;;;;3.63;100.00;98560.03;4844769;29;19928;-80
2020/12/08 07:24:50;;;;;;;;;;;;;;;3.57;100.00;98567.91;4844907;29;19928;-83
2020/12/08 07:27:17;;;;;;;;;;;;;;;3.53;100.00;98561.56;4829177;29;19932;-77
2020/12/08 07:29:43;;;;;;;;;;;;;;;3.64;100.00;98567.13;4829447;29;20273;-77
2020/12/08 07:32:10;;;;;;;;;;;;;;;3.66;100.00;98570.31;4829354;29;20305;-81
2020/12/08 07:34:46;;;;;;;;;;;;;;;3.66;100.00;98571.09;4844808;29;19958;-81
2020/12/08 07:37:16;;;;;;;;;;;;;;;3.71;100.00;98584.53;4829665;29;20330;-81
2020/12/08 07:39:43;;;;;;;;;;;;;;;3.73;100.00;98579.41;4844782;29;19935;-81
2020/12/08 07:42:09;;;;;;;;;;;;;;;3.59;100.00;98570.28;4844551;29;19932;-81
2020/12/08 07:44:36;;;;;;;;;;;;;;;3.63;100.00;98591.19;4845887;29;20337;-81
2020/12/08 07:47:02;;;;;;;;;;;;;;;3.67;100.00;98582.94;4845772;29;20020;-81
2020/12/08 07:49:38;;;;;;;;;;;;;;;3.65;100.00;98579.75;4845320;29;19929;-81
2020/12/08 07:52:04;;;;;;;;;;;;;;;3.60;100.00;98594.75;4844309;29;19928;-81
2020/12/08 07:54:31;;;;;;;;;;;;;;;3.61;100.00;98595.53;4829751;29;20253;-81
2020/12/08 07:56:58;;;;;;;;;;;;;;;3.51;100.00;98596.31;4844443;29;19960;-81
2020/12/08 07:59:25;;;;;;;;;;;;;;;3.49;100.00;98596.69;4844277;29;20361;-81
2020/12/08 08:01:51;;;;;;;;;;;;;;;3.48;100.00;98599.84;4828853;29;19956;-81
2020/12/08 08:04:18;;;;;;;;;;;;;;;3.48;100.00;98603.38;4844285;29;19976;-81
2020/12/08 08:06:45;;;;;;;;;;;;;;;3.43;100.00;98602.97;4845347;29;20365;-81
2020/12/08 08:09:11;;;;;;;;;;;;;;;3.50;100.00;98605.75;4844353;29;20269;-81
2020/12/08 08:11:38;;;;;;;;;;;;;;;3.52;100.00;98608.94;4843301;29;19929;-81
2020/12/08 08:14:04;;;;;;;;;;;;;;;3.48;100.00;98611.66;4828865;29;20023;-81
2020/12/08 08:16:31;;;;;;;;;;;;;;;3.43;100.00;98614.00;4843739;29;19928;-81
2020/12/08 08:18:57;;;;;;;;;;;;;;;3.41;100.00;98613.59;4843888;29;19963;-81
2020/12/08 08:21:24;;;;;;;;;;;;;;;3.36;100.00;98611.22;4844120;29;20041;-81
2020/12/08 08:23:51;;;;;;;;;;;;;;;3.28;100.00;98615.13;4845051;29;19928;-81
2020/12/08 08:26:18;;;;;;;;;;;;;;;3.32;100.00;98610.41;4828681;29;20377;-81
2020/12/08 08:28:44;;;;;;;;;;;;;;;3.29;100.00;98616.69;4844886;29;19951;-85
2020/12/08 08:31:11;;;;;;;;;;;;;;;3.26;100.00;98617.47;4828167;29;19928;-81
2020/12/08 08:33:37;;;;;;;;;;;;;;;3.22;100.00;98611.13;4843649;29;19967;-81
2020/12/08 08:36:04;;;;;;;;;;;;;;;3.24;100.00;98617.06;4813179;29;19936;-81
2020/12/08 08:38:31;;;;;;;;;;;;;;;3.19;100.00;98617.44;4843579;29;20083;-81
2020/12/08 08:40:57;;;;;;;;;;;;;;;3.27;100.00;98619.84;4843613;29;19936;-80
2020/12/08 08:43:24;;;;;;;;;;;;;;;3.25;100.00;98626.94;4843433;29;19932;-81
2020/12/08 08:45:51;;;;;;;;;;;;;;;3.31;100.00;98628.94;4843409;29;20427;-81
2020/12/08 08:48:20;;;;;;;;;;;;;;;3.34;100.00;98646.72;4812705;29;20278;-80
2020/12/08 08:51:11;;;;;;;;;;;;;;;3.25;100.00;98640.75;4839271;29;19928;-81
2020/12/08 08:53:38;;;;;;;;;;;;;;;3.39;100.00;98649.13;4839512;29;19929;-81
2020/12/08 08:56:04;;;;;;;;;;;;;;;3.32;100.00;98655.38;4841565;29;19928;-82
2020/12/08 08:58:31;;;;;;;;;;;;;;;3.43;100.00;98666.47;4841098;29;20672;-81
2020/12/08 09:01:22;;;;;;;;;;;;;;;3.45;100.00;98669.66;4852889;29;19928;-81
2020/12/08 09:03:49;;;;;;;;;;;;;;;3.51;100.00;98668.13;4823393;29;19929;-81
2020/12/08 09:06:16;;;;;;;;;;;;;;;3.51;100.00;98662.59;4806238;29;19936;-81
2020/12/08 09:08:42;;;;;;;;;;;;;;;3.52;100.00;98675.22;4837089;29;19951;-81
2020/12/08 09:11:09;;;;;;;;;;;;;;;3.52;100.00;98666.94;4836442;29;19944;-81
2020/12/08 09:13:36;;;;;;;;;;;;;;;3.53;100.00;98676.78;4820832;29;19955;-80
2020/12/08 09:16:03;;;;;;;;;;;;;;;3.50;100.00;98672.03;4820761;29;19936;-81
2020/12/08 09:18:30;;;;;;;;;;;;;;;3.49;100.00;98674.03;4821830;29;19933;-81
2020/12/08 09:20:56;;;;;;;;;;;;;;;3.46;100.00;98676.75;4838293;29;20357;-83
2020/12/08 09:23:23;;;;;;;;;;;;;;;3.48;100.00;98685.47;4824070;29;19950;-82
2020/12/08 09:25:50;;;;;;;;;;;;;;;3.51;100.00;98679.94;4825743;29;20343;-85
2020/12/08 09:28:17;;;;;;;;;;;;;;;3.57;100.00;98680.38;4824013;29;19951;-87
2020/12/08 09:30:44;;;;;;;;;;;;;;;3.57;100.00;98680.38;4809170;29;19929;-87
2020/12/08 09:33:11;;;;;;;;;;;;;;;3.59;100.00;98675.25;4823108;29;20403;-90
2020/12/08 09:35:37;;;;;;;;;;;;;;;3.59;100.00;98681.56;4825519;29;19932;-90
2020/12/08 09:38:05;;;;;;;;;;;;;;;3.54;100.00;98672.88;4824574;29;20063;-85
2020/12/08 09:40:31;;;;;;;;;;;;;;;3.54;100.00;98686.69;4823542;29;19928;-82
2020/12/08 09:42:58;;;;;;;;;;;;;;;3.53;100.00;98685.88;4841278;29;19928;-82
2020/12/08 09:45:25;;;;;;;;;;;;;;;3.53;100.00;98687.84;4842361;29;19932;-80
2020/12/08 09:47:51;;;;;;;;;;;;;;;3.55;100.00;98686.28;4856772;29;19929;-84
2020/12/08 09:50:18;;;;;;;;;;;;;;;3.56;100.00;98687.06;4856648;29;19937;-83
2020/12/08 09:52:44;;;;;;;;;;;;;;;3.65;100.00;98684.75;4842392;29;20376;-82
2020/12/08 09:55:11;;;;;;;;;;;;;;;3.74;100.00;98687.97;4842430;29;20377;-82
2020/12/08 09:57:37;;;;;;;;;;;;;;;3.84;100.00;98694.72;4857271;29;19929;-82
2020/12/08 10:00:05;;;;;;;;;;;;;;;3.91;100.00;98690.00;4843515;29;20011;-83
2020/12/08 10:02:31;;;;;;;;;;;;;;;3.90;100.00;98688.44;4842064;29;20012;-83
2020/12/08 10:04:58;;;;;;;;;;;;;;;3.96;100.00;98697.94;4857435;29;19929;-84
2020/12/08 10:07:25;;;;;;;;;;;;;;;3.92;100.00;98688.84;4857447;29;19952;-83
2020/12/08 10:09:51;;;;;;;;;;;;;;;3.87;100.00;98691.19;4857097;29;19976;-84
2020/12/08 10:12:18;;;;;;;;;;;;;;;3.92;100.00;98697.16;4841780;29;19929;-84
2020/12/08 10:14:45;;;;;;;;;;;;;;;3.95;100.00;98693.59;4842744;29;20652;-83
2020/12/08 10:17:11;;;;;;;;;;;;;;;3.94;100.00;98697.53;4841890;29;20373;-82
2020/12/08 10:19:39;;;;;;;;;;;;;;;3.93;100.00;98704.25;4841913;29;19963;-84
2020/12/08 10:22:05;;;;;;;;;;;;;;;3.91;100.00;98717.66;4842052;29;19932;-83
2020/12/08 10:24:32;;;;;;;;;;;;;;;3.86;100.00;98707.00;4826981;29;19935;-82
2020/12/08 10:26:59;;;;;;;;;;;;;;;3.84;100.00;98703.81;4826597;29;19932;-84
2020/12/08 10:29:25;;;;;;;;;;;;;;;3.90;100.00;98713.31;4841743;29;19932;-83
2020/12/08 10:31:52;;;;;;;;;;;;;;;3.92;100.00;98710.16;4841895;29;19935;-82
2020/12/08 10:34:19;;;;;;;;;;;;;;;3.90;100.00;98710.56;4844694;29;19935;-83
2020/12/08 10:36:46;;;;;;;;;;;;;;;3.88;100.00;98706.59;4860736;29;19932;-81
2020/12/08 10:39:13;;;;;;;;;;;;;;;3.91;100.00;98709.38;4846618;29;19928;-86
2020/12/08 10:41:40;;;;;;;;;;;;;;;3.97;100.00;98716.09;4843836;29;20284;-84
2020/12/08 10:44:06;;;;;;;;;;;;;;;3.96;100.00;98717.28;4840307;29;19928;-77
2020/12/08 10:46:33;;;;;;;;;;;;;;;3.92;100.00;98710.97;4839468;29;19937;-76
2020/12/08 10:49:00;;;;;;;;;;;;;;;3.94;100.00;98711.34;4856874;29;19928;-79
2020/12/08 10:51:27;;;;;;;;;;;;;;;3.92;100.00;98713.72;4839900;29;20285;-81
2020/12/08 10:53:54;;;;;;;;;;;;;;;3.99;100.00;98710.19;4824984;29;20012;-76
2020/12/08 10:56:25;;;;;;;;;;;;;;;4.01;100.00;98714.16;4806355;29;20023;-76
2020/12/08 10:58:52;;;;;;;;;;;;;;;4.02;100.00;98710.22;4845444;29;19928;-76
2020/12/08 11:01:19;;;;;;;;;;;;;;;4.08;100.00;98725.25;4841908;29;19932;-75
2020/12/08 11:03:46;;;;;;;;;;;;;;;4.12;100.00;98725.28;4823892;29;19968;-76
2020/12/08 11:06:21;;;;;;;;;;;;;;;4.15;100.00;98728.03;4838649;29;19985;-76
2020/12/08 11:08:48;;;;;;;;;;;;;;;4.17;100.00;98722.91;4839850;29;19936;-75
2020/12/08 11:11:22;;;;;;;;;;;;;;;4.12;100.00;98723.28;4840977;29;20542;-76
2020/12/08 11:13:49;;;;;;;;;;;;;;;4.12;100.00;98716.97;4840579;29;20304;-76
2020/12/08 11:16:15;;;;;;;;;;;;;;;4.11;100.00;98721.69;4840813;29;20377;-76
2020/12/08 11:18:42;;;;;;;;;;;;;;;4.12;100.00;98720.50;4841126;29;19935;-77
2020/12/08 11:21:09;;;;;;;;;;;;;;;4.07;100.00;98723.66;4841762;29;19936;-77
2020/12/08 11:23:36;;;;;;;;;;;;;;;4.08;100.00;98713.38;4855035;29;20365;-77
2020/12/08 11:26:02;;;;;;;;;;;;;;;4.09;100.00;98713.00;4840905;29;20393;-76
2020/12/08 11:28:29;;;;;;;;;;;;;;;4.15;100.00;98714.19;4839371;29;19933;-77
2020/12/08 11:31:03;;;;;;;;;;;;;;;4.12;100.00;98706.69;4841188;29;19976;-77
2020/12/08 11:33:38;;;;;;;;;;;;;;;4.19;100.00;98712.25;4855256;29;19928;-78
2020/12/08 11:36:06;;;;;;;;;;;;;;;4.22;100.00;98708.72;4840240;29;20016;-79
2020/12/08 11:38:32;;;;;;;;;;;;;;;4.17;100.00;98711.03;4839497;29;19929;-78
2020/12/08 11:41:00;;;;;;;;;;;;;;;4.23;100.00;98713.06;4839320;29;19929;-75
2020/12/08 11:43:26;;;;;;;;;;;;;;;4.22;100.00;98707.91;4840358;29;19929;-75
2020/12/08 11:45:52;;;;;;;;;;;;;;;4.27;100.00;98716.63;4853684;29;20026;-75
2020/12/08 11:48:22;;;;;;;;;;;;;;;4.21;100.00;98707.09;4839850;29;19968;-75
2020/12/08 11:50:49;;;;;;;;;;;;;;;4.26;100.00;98709.50;4839751;29;20639;-76
2020/12/08 11:53:16;;;;;;;;;;;;;;;4.31;100.00;98706.38;4857715;29;19967;-78
2020/12/08 11:55:43;;;;;;;;;;;;;;;4.34;100.00;98722.19;4843522;29;20388;-77
2020/12/08 11:58:10;;;;;;;;;;;;;;;4.40;100.00;98720.63;4844656;29;20011;-77
2020/12/08 12:00:36;;;;;;;;;;;;;;;4.44;100.00;98713.13;4844733;29;20270;-80
2020/12/08 12:03:03;;;;;;;;;;;;;;;4.47;100.00;98715.09;4843411;29;19993;-77
2020/12/08 12:05:30;;;;;;;;;;;;;;;4.48;100.00;98718.66;4828393;29;19935;-78
2020/12/08 12:07:56;;;;;;;;;;;;;;;4.51;100.00;98721.47;4844463;29;19935;-78
2020/12/08 12:10:23;;;;;;;;;;;;;;;4.56;100.00;98723.03;4844374;29;19932;-79
2020/12/08 12:12:49;;;;;;;;;;;;;;;4.53;100.00;98721.06;4844364;29;19928;-79
2020/12/08 12:15:16;;;;;;;;;;;;;;;4.56;100.00;98721.03;4858289;29;19935;-79
2020/12/08 12:17:43;;;;;;;;;;;;;;;4.50;100.00;98719.84;4843103;29;20401;-77
2020/12/08 12:20:09;;;;;;;;;;;;;;;4.48;100.00;98713.94;4844385;29;20012;-77
2020/12/08 12:22:36;;;;;;;;;;;;;;;4.41;100.00;98719.44;4858380;29;20381;-77
2020/12/08 12:25:04;;;;;;;;;;;;;;;4.38;100.00;98717.44;4844199;29;19928;-78
2020/12/08 12:27:30;;;;;;;;;;;;;;;4.39;100.00;98713.50;4844239;29;19972;-78
2020/12/08 12:29:57;;;;;;;;;;;;;;;4.42;100.00;98711.94;4844126;29;19976;-77
2020/12/08 12:32:24;;;;;;;;;;;;;;;4.34;100.00;98711.13;4844117;29;19963;-77
2020/12/08 12:34:51;;;;;;;;;;;;;;;4.39;100.00;98707.19;4843940;29;20019;-78
2020/12/08 12:37:18;;;;;;;;;;;;;;;4.41;100.00;98719.44;4844359;29;20411;-80
2020/12/08 12:39:44;;;;;;;;;;;;;;;4.35;100.00;98712.69;4827798;29;20402;-80
2020/12/08 12:42:11;;;;;;;;;;;;;;;4.41;100.00;98716.66;4844059;29;20401;-80
2020/12/08 12:44:38;;;;;;;;;;;;;;;4.46;100.00;98716.28;4842893;29;19935;-79
2020/12/08 12:47:04;;;;;;;;;;;;;;;4.44;100.00;98724.19;4844055;29;19935;-79
2020/12/08 12:49:31;;;;;;;;;;;;;;;4.43;100.00;98722.59;4842843;29;19928;-80
2020/12/08 12:51:59;;;;;;;;;;;;;;;4.47;100.00;98736.47;4857744;29;19928;-80